Strona główna
METAR-TAF:

METAR-TAF

Lotnisko :

Payerne, Szwajcaria

Szerokość geograficzna: 46-49N, Długość geograficzna: 006-57E, wysokość: 490 m

Aktualna obserwacja pogody

Raport powstał 32 minut temu, godzina 05:50 UTC
Wiatr 10 kt od południowo-południowy zachód
Temperatura 2°C
Wilgotność 69%
Ciśnienie 1001 hPa
Widzialność 10 km lub więcej
Przerywane chmury na wysokości 4200 ft
Przerywane chmury na wysokości 16000 ft

METAR: LSMP 250550Z AUTO 21010KT 9999NDV BKN042 BKN160 02/M03 Q1001 RMK

czas: 07:22 (06:22 UTC)


TAF: brakujący

Obserwacja i prognoza pogody dla ponad 4000 lotnisk (raport METAR i TAF).

Dostępne stacje oznaczono żółtymi i czerwonymi punktami na mapie.

Najedź kursorem aby zobaczyć nazwę stacji.

Kliknij aby zobaczyć obserwacje i prognozy pogody.

Aby zmienić mapę: kliknij na zielony przycisk z czarnym krzyżykiem, aby powiększyć; na zielony przycisk z myślnikiem, aby pomniejszyć; na zielone strzałki, aby przejść do map sąsiednich.


METAR-TAF: